createdAt,value
2019-06-10T00:00:23.093Z,3.83
2019-06-10T00:02:55.604Z,5.40
2019-06-10T00:05:27.210Z,8.68
2019-06-10T00:08:01.151Z,6.17
2019-06-10T00:10:31.826Z,4.17
2019-06-10T00:13:04.053Z,5.05
2019-06-10T00:15:36.510Z,5.97
2019-06-10T00:20:40.923Z,5.58
2019-06-10T00:23:12.549Z,9.83
2019-06-10T00:25:43.942Z,4.37
2019-06-10T00:28:15.049Z,8.10
2019-06-10T00:30:46.652Z,5.03
2019-06-10T00:35:48.325Z,3.42
2019-06-10T00:40:51.299Z,4.28
2019-06-10T00:43:23.395Z,4.40
2019-06-10T00:45:55.154Z,6.78
2019-06-10T00:48:29.400Z,5.58
2019-06-10T00:51:01.337Z,4.83
2019-06-10T00:53:32.232Z,6.28
2019-06-10T00:56:05.513Z,5.72
2019-06-10T00:58:36.912Z,4.40
2019-06-10T01:01:11.455Z,6.65
2019-06-10T01:03:41.781Z,8.43
2019-06-10T01:06:15.204Z,10.90
2019-06-10T01:08:46.303Z,4.10
2019-06-10T01:11:25.836Z,7.70
2019-06-10T01:13:50.880Z,7.20
2019-06-10T01:16:22.723Z,5.35
2019-06-10T01:22:22.765Z,6.10
2019-06-10T01:28:35.295Z,4.10
2019-06-10T01:31:10.077Z,5.17
2019-06-10T01:33:41.207Z,19.82
2019-06-10T01:36:14.903Z,5.28
2019-06-10T01:45:21.111Z,7.80
2019-06-10T01:47:51.726Z,5.50
2019-06-10T01:54:04.363Z,6.33
2019-06-10T01:56:35.799Z,2.45
2019-06-10T01:59:08.013Z,2.22
2019-06-10T02:01:41.312Z,4.22
2019-06-10T02:07:41.725Z,5.05
2019-06-10T02:10:15.932Z,6.33
2019-06-10T02:12:45.956Z,3.08
2019-06-10T02:19:03.433Z,3.98
2019-06-10T02:21:31.121Z,2.60
2019-06-10T02:24:02.831Z,5.65
2019-06-10T02:30:24.247Z,6.08
2019-06-10T02:32:47.754Z,3.25
2019-06-10T02:35:30.462Z,2.83
2019-06-10T02:37:53.933Z,3.30
2019-06-10T02:46:57.702Z,4.40
2019-06-10T02:49:51.455Z,4.10
2019-06-10T02:55:43.431Z,3.15
2019-06-10T02:58:15.703Z,3.58
2019-06-10T03:04:16.281Z,4.35
2019-06-10T03:06:48.850Z,3.77
2019-06-10T03:30:17.062Z,3.87
2019-06-10T03:43:23.437Z,3.45
2019-06-10T03:52:03.707Z,3.65
2019-06-10T04:22:24.911Z,3.67
2019-06-10T06:18:07.213Z,6.50
2019-06-10T06:20:35.863Z,4.87
2019-06-10T06:23:09.094Z,3.40
2019-06-10T06:25:43.352Z,4.85
2019-06-10T06:31:42.974Z,3.95
2019-06-10T06:34:14.137Z,3.83
2019-06-10T06:36:46.075Z,4.12
2019-06-10T06:39:17.530Z,3.98
2019-06-10T07:40:54.824Z,3.50
2019-06-10T09:01:18.215Z,3.37
2019-06-10T09:10:35.067Z,3.22
2019-06-10T09:13:06.497Z,4.75
2019-06-10T09:15:39.129Z,3.90
2019-06-10T09:45:58.455Z,6.25
2019-06-10T09:48:30.529Z,5.72
2019-06-10T10:19:00.304Z,4.33
2019-06-10T11:05:38.590Z,5.42
2019-06-10T11:08:13.121Z,6.72
2019-06-10T11:10:44.441Z,6.12
2019-06-10T11:13:16.022Z,6.80
2019-06-10T11:15:47.282Z,5.15
2019-06-10T11:18:19.063Z,4.03
2019-06-10T11:23:22.829Z,4.70
2019-06-10T11:25:57.051Z,9.53
2019-06-10T11:28:27.501Z,9.30
2019-06-10T11:30:59.268Z,11.10
2019-06-10T11:36:02.887Z,17.90
2019-06-10T11:38:34.417Z,23.35
2019-06-10T11:41:05.859Z,13.75
2019-06-10T11:43:37.297Z,15.83
2019-06-10T11:46:08.568Z,14.35
2019-06-10T11:48:39.891Z,17.15
2019-06-10T11:51:13.006Z,15.15
2019-06-10T11:53:44.061Z,11.88
2019-06-10T11:56:15.791Z,14.40
2019-06-10T11:58:47.915Z,12.43
2019-06-10T12:01:18.997Z,9.00
2019-06-10T12:03:53.434Z,12.07
2019-06-10T12:06:23.579Z,13.15
2019-06-10T12:08:58.422Z,19.10
2019-06-10T12:11:28.130Z,14.10
2019-06-10T12:19:04.227Z,10.53
2019-06-10T12:21:35.677Z,15.03
2019-06-10T12:24:07.751Z,12.10
2019-06-10T12:26:39.592Z,13.50
2019-06-10T12:31:42.944Z,7.30
2019-06-10T12:34:14.400Z,10.35
2019-06-10T12:36:45.453Z,10.40
2019-06-10T12:39:17.501Z,10.77
2019-06-10T12:41:49.219Z,9.60
2019-06-10T12:44:22.716Z,18.52
2019-06-10T12:46:53.958Z,16.30
2019-06-10T12:49:26.343Z,18.02
2019-06-10T12:51:59.168Z,12.15
2019-06-10T12:54:32.542Z,9.40
2019-06-10T12:57:06.354Z,10.88
2019-06-10T12:59:35.930Z,12.93
2019-06-10T13:02:21.287Z,15.20
2019-06-10T13:04:42.873Z,12.90
2019-06-10T13:07:14.455Z,13.10
2019-06-10T13:09:47.394Z,10.38
2019-06-10T13:12:18.707Z,11.38
2019-06-10T13:14:52.058Z,11.05
2019-06-10T13:17:23.396Z,6.55
2019-06-10T13:19:55.345Z,6.62
2019-06-10T13:24:58.438Z,10.05
2019-06-10T13:27:31.903Z,8.13
2019-06-10T13:30:02.690Z,40.70
2019-06-10T13:32:34.029Z,33.13
2019-06-10T13:35:07.720Z,34.73
2019-06-10T13:37:39.509Z,38.53
2019-06-10T13:40:12.951Z,38.08
2019-06-10T13:42:44.879Z,22.50
2019-06-10T13:47:46.687Z,7.05
2019-06-10T13:50:19.422Z,10.18
2019-06-10T13:52:52.045Z,5.55
2019-06-10T13:55:23.347Z,6.55
2019-06-10T13:57:55.219Z,10.28
2019-06-10T14:00:40.341Z,7.20
2019-06-10T14:03:00.005Z,8.28
2019-06-10T14:05:34.456Z,5.92
2019-06-10T14:08:08.644Z,8.03
2019-06-10T14:10:37.143Z,10.18
2019-06-10T14:13:10.652Z,8.85
2019-06-10T14:15:42.746Z,7.47
2019-06-10T14:18:15.348Z,4.33
2019-06-10T14:20:47.554Z,8.25
2019-06-10T14:23:18.762Z,8.83
2019-06-10T14:25:52.222Z,4.23
2019-06-10T14:28:40.100Z,6.33
2019-06-10T14:30:56.394Z,7.85
2019-06-10T14:33:28.477Z,7.22
2019-06-10T14:38:32.525Z,9.00
2019-06-10T14:41:05.028Z,6.62
2019-06-10T14:43:37.086Z,3.80
2019-06-10T14:48:39.924Z,5.08
2019-06-10T14:51:14.898Z,9.33
2019-06-10T14:53:43.977Z,5.30
2019-06-10T14:56:19.000Z,4.33
2019-06-10T14:58:48.226Z,5.10
2019-06-10T15:01:25.013Z,8.90
2019-06-10T15:03:52.943Z,7.58
2019-06-10T15:06:24.605Z,4.90
2019-06-10T15:08:56.480Z,6.75
2019-06-10T15:11:28.125Z,4.42
2019-06-10T15:13:59.444Z,9.00
2019-06-10T15:16:33.405Z,3.80
2019-06-10T15:19:14.628Z,7.25
2019-06-10T15:21:36.515Z,3.00
2019-06-10T15:24:07.954Z,6.22
2019-06-10T15:26:39.391Z,6.55
2019-06-10T15:29:11.860Z,5.08
2019-06-10T15:31:43.844Z,10.38
2019-06-10T15:34:16.642Z,4.55
2019-06-10T15:36:47.672Z,7.50
2019-06-10T15:39:21.503Z,4.90
2019-06-10T15:41:52.294Z,5.92
2019-06-10T15:44:44.202Z,9.05
2019-06-10T15:46:56.763Z,6.20
2019-06-10T15:49:28.615Z,3.60
2019-06-10T15:52:00.122Z,5.35
2019-06-10T15:54:33.375Z,8.33
2019-06-10T15:57:04.200Z,6.05
2019-06-10T15:59:35.865Z,5.23
2019-06-10T16:02:07.915Z,7.15
2019-06-10T16:07:09.749Z,9.35
2019-06-10T16:09:42.419Z,5.10
2019-06-10T16:12:16.136Z,7.05
2019-06-10T16:14:47.130Z,6.53
2019-06-10T16:17:19.143Z,5.83
2019-06-10T16:22:22.277Z,7.00
2019-06-10T16:24:53.712Z,7.17
2019-06-10T16:27:43.494Z,4.50
2019-06-10T16:29:58.407Z,7.45
2019-06-10T16:32:32.847Z,7.00
2019-06-10T16:35:04.011Z,7.70
2019-06-10T16:37:35.628Z,5.15
2019-06-10T16:40:08.604Z,7.50
2019-06-10T16:42:39.811Z,4.33
2019-06-10T16:45:12.969Z,8.87
2019-06-10T16:47:44.068Z,5.45
2019-06-10T16:50:17.241Z,6.22
2019-06-10T16:52:49.059Z,7.75
2019-06-10T16:55:22.645Z,9.03
2019-06-10T16:57:59.245Z,5.05
2019-06-10T17:00:27.786Z,11.53
2019-06-10T17:02:59.110Z,5.30
2019-06-10T17:05:33.045Z,6.62
2019-06-10T17:08:03.391Z,7.70
2019-06-10T17:10:35.251Z,8.87
2019-06-10T17:13:08.099Z,5.75
2019-06-10T17:15:42.227Z,6.35
2019-06-10T17:18:13.097Z,6.28
2019-06-10T17:23:18.753Z,6.67
2019-06-10T17:25:53.306Z,5.22
2019-06-10T17:28:28.990Z,6.97
2019-06-10T17:30:59.043Z,10.03
2019-06-10T17:33:31.963Z,6.35
2019-06-10T17:36:03.407Z,6.40
2019-06-10T17:41:04.312Z,5.78
2019-06-10T17:43:35.394Z,5.97
2019-06-10T17:46:06.437Z,4.87
2019-06-10T17:48:38.103Z,7.22
2019-06-10T17:51:09.415Z,8.90
2019-06-10T17:53:42.560Z,5.90
2019-06-10T17:56:13.466Z,7.33
2019-06-10T17:58:54.325Z,7.55
2019-06-10T18:01:17.213Z,7.58
2019-06-10T18:03:48.215Z,6.03
2019-06-10T18:06:19.593Z,4.90
2019-06-10T18:08:52.559Z,9.40
2019-06-10T18:11:24.693Z,8.98
2019-06-10T18:13:55.551Z,6.70
2019-06-10T18:16:28.151Z,9.97
2019-06-10T18:18:59.820Z,8.73
2019-06-10T18:21:33.086Z,7.45
2019-06-10T18:24:07.852Z,9.70
2019-06-10T18:26:37.681Z,6.03
2019-06-10T18:29:09.465Z,5.67
2019-06-10T18:31:42.765Z,6.75
2019-06-10T18:34:14.174Z,7.40
2019-06-10T18:36:45.470Z,9.35
2019-06-10T18:39:17.376Z,7.85
2019-06-10T18:41:48.385Z,8.90
2019-06-10T18:44:23.287Z,7.87
2019-06-10T18:46:52.153Z,5.30
2019-06-10T18:49:23.067Z,8.67
2019-06-10T18:51:54.836Z,5.72
2019-06-10T18:54:27.728Z,8.70
2019-06-10T18:56:59.594Z,7.80
2019-06-10T18:59:33.120Z,7.60
2019-06-10T19:02:06.190Z,10.10
2019-06-10T19:04:37.933Z,7.40
2019-06-10T19:07:09.256Z,7.35
2019-06-10T19:09:47.607Z,9.70
2019-06-10T19:12:13.929Z,6.42
2019-06-10T19:14:45.395Z,7.72
2019-06-10T19:17:17.520Z,8.93
2019-06-10T19:19:49.099Z,9.13
2019-06-10T19:22:22.379Z,10.45
2019-06-10T19:24:53.241Z,8.80
2019-06-10T19:27:24.954Z,7.60
2019-06-10T19:29:56.452Z,6.92
2019-06-10T19:32:28.307Z,6.70
2019-06-10T19:34:59.148Z,6.47
2019-06-10T19:37:32.779Z,7.35
2019-06-10T19:40:02.950Z,7.87
2019-06-10T19:42:35.665Z,7.75
2019-06-10T19:45:09.166Z,7.53
2019-06-10T19:47:41.290Z,7.58
2019-06-10T19:50:13.688Z,9.30
2019-06-10T19:52:45.485Z,10.82
2019-06-10T19:55:17.549Z,8.53
2019-06-10T19:57:48.391Z,5.83
2019-06-10T20:00:22.070Z,8.15
2019-06-10T20:02:53.420Z,9.50
2019-06-10T20:05:27.029Z,9.65
2019-06-10T20:07:58.546Z,10.80
2019-06-10T20:10:32.213Z,6.92
2019-06-10T20:13:02.629Z,9.80
2019-06-10T20:15:33.778Z,10.38
2019-06-10T20:18:05.224Z,9.07
2019-06-10T20:20:36.344Z,10.65
2019-06-10T20:23:08.855Z,10.40
2019-06-10T20:25:41.108Z,7.42
2019-06-10T20:28:13.174Z,9.53
2019-06-10T20:30:47.763Z,9.43
2019-06-10T20:33:18.639Z,7.70
2019-06-10T20:35:50.016Z,8.83
2019-06-10T20:38:22.294Z,6.62
2019-06-10T20:40:54.005Z,11.78
2019-06-10T20:43:25.560Z,9.10
2019-06-10T20:45:58.285Z,11.10
2019-06-10T20:48:29.547Z,9.88
2019-06-10T20:51:02.887Z,10.75
2019-06-10T20:53:33.796Z,13.93
2019-06-10T20:56:05.354Z,10.13
2019-06-10T20:58:37.059Z,9.90
2019-06-10T21:01:08.821Z,9.05
2019-06-10T21:03:43.276Z,9.40
2019-06-10T21:06:14.031Z,8.80
2019-06-10T21:08:48.110Z,8.63
2019-06-10T21:11:18.340Z,8.98
2019-06-10T21:13:52.102Z,9.10
2019-06-10T21:16:23.093Z,12.03
2019-06-10T21:18:55.527Z,12.53
2019-06-10T21:21:27.290Z,8.95
2019-06-10T21:23:58.359Z,12.33
2019-06-10T21:26:29.308Z,8.35
2019-06-10T21:29:03.624Z,8.85
2019-06-10T21:31:33.690Z,8.60
2019-06-10T21:34:05.367Z,12.50
2019-06-10T21:36:36.818Z,8.88
2019-06-10T21:39:09.588Z,10.82
2019-06-10T21:41:42.580Z,15.53
2019-06-10T21:44:14.154Z,14.20
2019-06-10T21:46:46.196Z,12.10
2019-06-10T21:49:18.196Z,14.58
2019-06-10T21:51:50.763Z,11.93
2019-06-10T21:54:22.453Z,11.97
2019-06-10T21:56:55.655Z,11.22
2019-06-10T21:59:27.252Z,11.70
2019-06-10T22:01:59.013Z,11.95
2019-06-10T22:04:32.501Z,12.03
2019-06-10T22:07:03.366Z,12.50
2019-06-10T22:09:35.224Z,13.25
2019-06-10T22:12:06.974Z,14.53
2019-06-10T22:14:38.738Z,9.65
2019-06-10T22:17:12.191Z,10.20
2019-06-10T22:19:44.474Z,15.08
2019-06-10T22:22:16.070Z,12.80
2019-06-10T22:24:48.766Z,11.22
2019-06-10T22:27:22.258Z,10.43
2019-06-10T22:29:54.293Z,11.30
2019-06-10T22:32:26.273Z,8.73
2019-06-10T22:34:57.723Z,14.70
2019-06-10T22:37:28.942Z,13.03
2019-06-10T22:39:59.873Z,10.67
2019-06-10T22:42:32.739Z,11.22
2019-06-10T22:45:04.674Z,11.30
2019-06-10T22:47:35.999Z,10.98
2019-06-10T22:50:09.207Z,15.93
2019-06-10T22:52:42.455Z,11.73
2019-06-10T22:55:13.399Z,11.65
2019-06-10T22:57:44.996Z,13.28
2019-06-10T23:00:15.908Z,11.45
2019-06-10T23:02:47.794Z,15.18
2019-06-10T23:05:22.971Z,10.15
2019-06-10T23:07:54.460Z,10.78
2019-06-10T23:10:25.729Z,11.57
2019-06-10T23:12:58.506Z,15.83
2019-06-10T23:15:32.194Z,10.90
2019-06-10T23:18:03.499Z,11.38
2019-06-10T23:20:35.136Z,11.53
2019-06-10T23:23:06.448Z,13.45
2019-06-10T23:25:38.040Z,15.53
2019-06-10T23:28:09.386Z,11.12
2019-06-10T23:30:42.756Z,12.98
2019-06-10T23:33:13.728Z,10.48
2019-06-10T23:35:47.596Z,10.05
2019-06-10T23:38:18.356Z,10.20
2019-06-10T23:40:50.658Z,9.65
2019-06-10T23:43:22.727Z,10.48
2019-06-10T23:48:25.074Z,12.50
2019-06-10T23:50:57.720Z,14.58
2019-06-10T23:53:29.533Z,9.60
2019-06-10T23:56:03.236Z,10.00
2019-06-10T23:58:33.478Z,11.45
